Aviation Digital Data Service (ADDS)

Output produced by METARs form (1619 UTC 24 August 2019)
found at http://www.aviationweather.gov/metar/data/
 
KFLL 241510Z 2415/2518 VRB05KT P6SM VCTS SCT020CB SCT080 BKN250 
     FM241600 16011KT P6SM VCTS SCT025CB BKN050 BKN250 
     FM250000 19005KT P6SM VCSH SCT025 BKN100 BKN250 
     FM251000 22006KT P6SM VCSH SCT025 BKN050 BKN250